OIIK  Qazvin  Airport

Qazvin, Iran

Add Bookmark
ICAO OIIK
Type Airport
Status Operational
Latitude
36° 14' 24" N
36.240101
Longitude
50° 2' 49" E
50.047100
Local (GMT +3.5 ) UTC
Oct 1, 2016 08:40 pm Oct 1, 2016 17:10
Sunrise-Sunset Local UTC
Begin Civil Twilight 05:38 am 02:08
Sunrise 06:04 am 02:34
Sunset 05:54 pm 14:24
End Civil Twilight 06:19 pm 14:49
VFR
VFR
MVFR
MVFR
IFR
IFR
LIFR
LIFR
Unknown
Unavailable

Current Weather

METAR Observed VFR
OIIK 011600Z 26002KT CAVOK 14/04 Q1023 Sat, Oct 1, 2016 @ 16:00 UTC
(1 Hour, 10 Minutes ago)
Visual Flight Rules
Wind Visibility Conditions
260° at 2 knots (4 kph) 10 km or more
  • No significant weather
Temperatures Readings Precipitation
Current Temp
14°C
57°F
Dewpoint
4°C
39°F
Humidity 51%
Altimeter 30.21" Hg
Sea Level Pressure 1,023 mb
Field Elevation
1,278 m
4,193 ft
None Recorded

Additional weather within a 92.6km radius of OIIK

Map ICAO Location
OIIP 87km SE (126°)
VFR
VFR
MVFR
MVFR
IFR
IFR
LIFR
LIFR
Unknown
Unavailable
-
-

CheckWX.com is intended as a tool to help pilots better visualize weather data. It is not intended as a substitute for an official weather briefing obtained from a Flight Service Station. CheckWX.com does not meet the FAA requirements for an official pre-flight weather briefing. Therefore, it's important that pilots still call and obtain an official FSS pre-flight weather briefing.

© 2007-2016 CheckWX.com
17:10:32 UTC